Time;durP1;ratioP1;P1;durP2;ratioP2;P2;SDS_P1;SDS_P2;PMS_P1;PMS_P2;Temp;Humidity;BMP_temperature;BMP_pressure;BME280_temperature;BME280_humidity;BME280_pressure;Samples;Min_cycle;Max_cycle;Signal;HPM_P1;HPM_P2
2022/01/19 00:00:20;;;;;;;0.50;0.40;;;2.90;99.90;;;;;;4996900;28;20200;-81
2022/01/19 00:02:47;;;;;;;0.50;0.40;;;2.90;99.90;;;;;;4996325;28;20582;-78
2022/01/19 00:05:14;;;;;;;0.88;0.88;;;2.90;99.90;;;;;;4996948;28;20220;-80
2022/01/19 00:07:41;;;;;;;0.50;0.40;;;2.90;99.90;;;;;;4996915;28;20188;-80
2022/01/19 00:10:11;;;;;;;0.50;0.40;;;2.90;99.90;;;;;;4996400;28;20193;-80
2022/01/19 00:12:42;;;;;;;0.50;0.40;;;2.90;99.90;;;;;;4996510;28;20205;-80
2022/01/19 00:15:10;;;;;;;0.50;0.40;;;2.90;99.90;;;;;;4996893;28;20243;-80
2022/01/19 00:17:38;;;;;;;0.40;0.40;;;2.90;99.90;;;;;;4997613;28;20220;-81
2022/01/19 00:20:06;;;;;;;0.45;0.40;;;2.80;99.90;;;;;;4996566;28;20196;-81
2022/01/19 00:22:33;;;;;;;0.50;0.40;;;2.80;99.90;;;;;;4997542;28;20200;-81
2022/01/19 00:25:00;;;;;;;0.85;0.85;;;2.70;99.90;;;;;;4996395;28;20633;-80
2022/01/19 00:27:27;;;;;;;0.50;0.40;;;2.80;99.90;;;;;;4997315;28;20196;-79
2022/01/19 00:29:54;;;;;;;0.40;0.40;;;3.00;99.90;;;;;;4997041;28;20197;-81
2022/01/19 00:32:23;;;;;;;0.50;0.40;;;3.00;99.90;;;;;;4997312;28;20200;-81
2022/01/19 00:34:51;;;;;;;0.50;0.40;;;2.90;99.90;;;;;;4996649;28;20239;-80
2022/01/19 00:37:17;;;;;;;0.40;0.40;;;2.80;99.90;;;;;;4995723;28;20213;-81
2022/01/19 00:39:44;;;;;;;0.50;0.40;;;2.80;99.90;;;;;;4996138;28;20204;-81
2022/01/19 00:42:11;;;;;;;0.40;0.40;;;2.70;99.90;;;;;;4996616;28;20223;-80
2022/01/19 00:44:39;;;;;;;0.47;0.40;;;2.70;99.90;;;;;;4996489;28;20232;-78
2022/01/19 00:47:06;;;;;;;0.50;0.40;;;2.70;99.90;;;;;;4996938;28;20570;-80
2022/01/19 00:49:33;;;;;;;0.50;0.40;;;2.60;99.90;;;;;;4996351;28;20204;-81
2022/01/19 00:52:01;;;;;;;0.47;0.40;;;2.60;99.90;;;;;;4996768;28;20213;-81
2022/01/19 00:54:27;;;;;;;0.45;0.40;;;2.50;99.90;;;;;;4996863;28;20232;-80
2022/01/19 00:56:54;;;;;;;0.50;0.40;;;2.50;99.90;;;;;;4998155;28;20216;-81
2022/01/19 00:59:21;;;;;;;0.50;0.40;;;2.40;99.90;;;;;;5000450;28;20237;-80
2022/01/19 01:01:47;;;;;;;0.40;0.40;;;2.40;99.90;;;;;;5000129;28;20211;-81
2022/01/19 01:04:14;;;;;;;0.50;0.40;;;2.30;99.90;;;;;;5000180;28;20571;-80
2022/01/19 01:06:42;;;;;;;0.50;0.40;;;2.30;99.90;;;;;;5000176;28;20200;-81
2022/01/19 01:09:10;;;;;;;0.50;0.40;;;2.20;99.90;;;;;;4999705;28;20201;-80
2022/01/19 01:11:46;;;;;;;0.50;0.40;;;2.10;99.90;;;;;;4998792;28;20196;-81
2022/01/19 01:17:12;;;;;;;0.50;0.40;;;2.00;99.90;;;;;;4999385;28;20304;-80
2022/01/19 01:19:39;;;;;;;0.50;0.40;;;1.90;99.90;;;;;;4999640;28;20204;-81
2022/01/19 01:22:06;;;;;;;0.50;0.40;;;2.00;99.90;;;;;;4999326;28;20205;-80
2022/01/19 01:24:34;;;;;;;0.50;0.40;;;1.90;99.90;;;;;;4999666;28;20694;-81
2022/01/19 01:27:01;;;;;;;0.50;0.40;;;1.90;99.90;;;;;;5000140;28;20207;-81
2022/01/19 01:29:28;;;;;;;0.50;0.40;;;1.90;99.90;;;;;;4998750;28;20695;-80
2022/01/19 01:31:55;;;;;;;0.50;0.40;;;1.90;99.90;;;;;;4999722;28;20210;-81
2022/01/19 01:34:21;;;;;;;0.40;0.40;;;1.90;99.90;;;;;;5006305;28;20200;-78
2022/01/19 01:36:48;;;;;;;0.40;0.40;;;1.80;99.90;;;;;;4999839;28;20201;-79
2022/01/19 01:39:15;;;;;;;0.70;0.70;;;1.80;99.90;;;;;;4998510;28;20192;-81
2022/01/19 01:41:43;;;;;;;0.50;0.40;;;1.80;99.90;;;;;;4998903;28;20686;-80
2022/01/19 01:44:09;;;;;;;0.50;0.40;;;1.80;99.90;;;;;;4998978;28;20208;-80
2022/01/19 01:46:44;;;;;;;0.50;0.40;;;1.70;99.90;;;;;;4998650;28;20215;-81
2022/01/19 01:49:17;;;;;;;0.50;0.40;;;1.70;99.90;;;;;;4998545;28;20260;-80
2022/01/19 01:54:28;;;;;;;0.40;0.40;;;1.60;99.90;;;;;;4998397;28;20215;-80
2022/01/19 01:56:57;;;;;;;0.40;0.40;;;1.70;99.90;;;;;;4999096;28;20206;-81
2022/01/19 01:59:23;;;;;;;0.40;0.40;;;1.70;99.90;;;;;;4998711;28;20197;-81
2022/01/19 02:01:50;;;;;;;0.40;0.40;;;1.70;99.90;;;;;;4998274;28;20208;-81
2022/01/19 02:04:21;;;;;;;0.40;0.40;;;1.60;99.90;;;;;;4998550;28;20203;-80
2022/01/19 02:07:16;;;;;;;0.40;0.40;;;1.60;99.90;;;;;;4998916;28;20232;-81
2022/01/19 02:09:46;;;;;;;0.40;0.40;;;1.50;99.90;;;;;;4998137;28;20196;-78
2022/01/19 02:23:16;;;;;;;0.40;0.40;;;1.30;99.90;;;;;;4997916;28;20224;-80
2022/01/19 02:25:45;;;;;;;0.50;0.40;;;1.30;99.90;;;;;;4997185;28;20223;-80
2022/01/19 02:31:32;;;;;;;0.43;0.40;;;1.30;99.90;;;;;;4997058;28;20179;-81
2022/01/19 02:36:51;;;;;;;1.70;0.70;;;1.50;99.90;;;;;;4997649;28;20279;-80
2022/01/19 02:42:07;;;;;;;0.40;0.40;;;2.00;99.90;;;;;;4997399;28;20222;-80
2022/01/19 02:46:37;;;;;;;0.40;0.40;;;2.10;99.90;;;;;;4997168;28;20212;-80
2022/01/19 02:50:12;;;;;;;2.15;1.95;;;2.60;99.90;;;;;;4996857;28;20187;-80
2022/01/19 02:52:41;;;;;;;0.98;0.88;;;2.80;99.90;;;;;;4996859;28;20200;-80
2022/01/19 02:55:08;;;;;;;1.95;1.15;;;3.00;99.90;;;;;;4997691;28;20213;-79
2022/01/19 02:57:36;;;;;;;1.27;1.17;;;3.10;99.90;;;;;;4996925;28;20209;-80
2022/01/19 03:11:05;;;;;;;1.17;0.85;;;3.40;99.90;;;;;;4996607;28;20199;-81
2022/01/19 03:13:32;;;;;;;0.98;0.98;;;3.50;99.90;;;;;;4996960;28;20197;-80
2022/01/19 03:15:58;;;;;;;0.77;0.70;;;3.50;99.90;;;;;;4996596;28;20215;-81
2022/01/19 03:18:27;;;;;;;0.98;0.98;;;3.50;99.90;;;;;;4996188;28;20232;-80
2022/01/19 03:20:53;;;;;;;0.60;0.60;;;3.50;99.90;;;;;;4996449;28;20196;-80
2022/01/19 03:23:21;;;;;;;1.83;1.58;;;3.60;99.90;;;;;;4996658;28;20193;-80
2022/01/19 03:25:49;;;;;;;0.50;0.43;;;3.60;99.90;;;;;;4995907;28;20212;-80
2022/01/19 03:28:16;;;;;;;2.15;1.95;;;3.60;99.90;;;;;;4996381;28;20200;-80
2022/01/19 03:30:43;;;;;;;1.80;1.50;;;3.70;99.90;;;;;;4996260;28;20192;-80
2022/01/19 03:33:10;;;;;;;2.15;1.95;;;3.60;99.90;;;;;;4996843;28;20201;-80
2022/01/19 03:35:38;;;;;;;2.33;2.22;;;3.60;99.90;;;;;;4996360;28;20297;-80
2022/01/19 03:38:05;;;;;;;2.22;1.02;;;3.70;99.90;;;;;;4996209;28;20285;-79
2022/01/19 03:40:33;;;;;;;3.25;1.77;;;3.70;99.90;;;;;;4995716;28;20566;-80
2022/01/19 03:42:59;;;;;;;1.00;0.75;;;3.70;99.90;;;;;;4996418;28;20673;-80
2022/01/19 03:45:26;;;;;;;1.23;1.13;;;3.80;99.90;;;;;;4995891;28;20228;-80
2022/01/19 03:48:06;;;;;;;1.40;1.15;;;3.80;99.90;;;;;;4995927;28;20191;-81
2022/01/19 03:50:32;;;;;;;0.57;0.57;;;3.90;99.90;;;;;;4995820;28;20240;-80
2022/01/19 03:52:59;;;;;;;6.45;2.70;;;4.00;99.90;;;;;;4996484;28;20199;-81
2022/01/19 03:55:26;;;;;;;0.50;0.40;;;3.90;99.90;;;;;;4996280;28;20220;-81
2022/01/19 03:57:54;;;;;;;1.35;1.25;;;4.00;99.90;;;;;;4996000;28;20633;-81
2022/01/19 04:00:21;;;;;;;0.77;0.77;;;4.00;99.90;;;;;;4995209;28;20193;-80
2022/01/19 04:02:49;;;;;;;0.50;0.40;;;4.00;99.90;;;;;;4995203;28;20654;-80
2022/01/19 04:05:21;;;;;;;0.88;0.88;;;4.00;99.90;;;;;;4995744;28;20276;-81
2022/01/19 04:07:47;;;;;;;1.83;0.95;;;4.00;99.90;;;;;;4996042;28;20177;-80
2022/01/19 04:10:14;;;;;;;0.50;0.50;;;4.00;99.90;;;;;;4995049;28;20192;-81
2022/01/19 04:12:47;;;;;;;2.45;1.80;;;4.00;99.90;;;;;;4995689;28;20203;-80
2022/01/19 04:15:19;;;;;;;0.98;0.88;;;4.00;99.90;;;;;;4995521;28;20228;-81
2022/01/19 04:17:51;;;;;;;2.47;0.60;;;4.00;99.90;;;;;;4995225;28;20610;-80
2022/01/19 04:20:18;;;;;;;4.05;2.30;;;4.00;99.90;;;;;;4995526;28;20232;-80
2022/01/19 04:22:45;;;;;;;0.88;0.88;;;4.00;99.90;;;;;;4995068;28;20197;-80
2022/01/19 04:25:12;;;;;;;2.60;2.10;;;4.10;99.90;;;;;;4995786;28;20216;-80
2022/01/19 04:27:41;;;;;;;5.22;1.95;;;4.10;99.90;;;;;;4995347;28;20200;-80
2022/01/19 04:30:11;;;;;;;1.20;1.08;;;4.10;99.90;;;;;;4995409;28;20189;-79
2022/01/19 04:32:46;;;;;;;2.00;0.85;;;4.10;99.90;;;;;;5001151;28;20180;-82
2022/01/19 04:35:16;;;;;;;0.98;0.65;;;4.10;99.90;;;;;;5000550;28;20219;-78
2022/01/19 04:46:24;;;;;;;3.58;3.22;;;4.20;99.90;;;;;;5009016;28;20235;-80
2022/01/19 04:49:13;;;;;;;4.60;2.17;;;4.20;99.90;;;;;;5007577;28;20188;-79
2022/01/19 04:54:44;;;;;;;1.60;1.50;;;4.20;99.90;;;;;;4992355;28;20185;-79
2022/01/19 05:03:10;;;;;;;0.70;0.70;;;4.20;99.90;;;;;;5000420;28;20247;-80
2022/01/19 05:05:47;;;;;;;0.80;0.80;;;4.20;99.90;;;;;;5002024;28;20630;-79
2022/01/19 05:08:21;;;;;;;0.95;0.95;;;4.30;99.90;;;;;;5002200;28;20193;-79
2022/01/19 05:13:36;;;;;;;0.75;0.75;;;4.20;99.90;;;;;;5003906;28;20176;-79
2022/01/19 05:16:03;;;;;;;1.98;1.35;;;4.20;99.90;;;;;;5006029;28;20255;-78
2022/01/19 05:18:30;;;;;;;1.40;1.30;;;4.20;99.90;;;;;;5011903;28;20216;-78
2022/01/19 05:20:58;;;;;;;7.05;2.90;;;4.30;99.90;;;;;;5017239;28;20215;-79
2022/01/19 05:23:25;;;;;;;1.35;1.27;;;4.30;99.90;;;;;;5011163;28;20192;-79
2022/01/19 05:25:52;;;;;;;6.78;2.78;;;4.20;99.90;;;;;;5008774;28;20236;-79
2022/01/19 05:28:19;;;;;;;0.50;0.40;;;4.20;99.90;;;;;;5013275;28;20192;-79
2022/01/19 05:30:46;;;;;;;2.00;1.73;;;4.20;99.90;;;;;;5014767;28;20193;-79
2022/01/19 05:33:12;;;;;;;1.80;1.48;;;4.20;99.90;;;;;;5011881;28;20196;-79
2022/01/19 05:35:39;;;;;;;7.50;3.90;;;4.20;99.90;;;;;;5014753;28;20204;-79
2022/01/19 05:38:07;;;;;;;2.40;2.20;;;4.30;99.90;;;;;;5016630;28;20208;-80
2022/01/19 05:40:34;;;;;;;1.65;1.58;;;4.30;99.90;;;;;;5016960;28;20195;-79
2022/01/19 05:43:01;;;;;;;1.70;1.60;;;4.30;99.90;;;;;;5002705;28;20192;-80
2022/01/19 05:45:28;;;;;;;2.65;2.45;;;4.30;99.90;;;;;;4999693;28;20240;-79
2022/01/19 05:47:55;;;;;;;11.27;4.65;;;4.30;99.90;;;;;;5000683;28;20689;-80
2022/01/19 05:50:22;;;;;;;0.70;0.70;;;4.30;99.90;;;;;;5001002;28;20197;-79
2022/01/19 05:52:49;;;;;;;0.68;0.60;;;4.30;99.90;;;;;;4998871;28;20721;-79
2022/01/19 05:55:17;;;;;;;6.75;2.05;;;4.30;99.90;;;;;;5005773;28;20221;-79
2022/01/19 05:57:44;;;;;;;2.60;1.20;;;4.30;99.90;;;;;;4998356;28;20188;-79
2022/01/19 06:00:12;;;;;;;3.70;1.60;;;4.30;99.90;;;;;;4998442;28;20220;-79
2022/01/19 06:02:38;;;;;;;1.67;1.58;;;4.30;99.90;;;;;;4998204;28;20192;-78
2022/01/19 06:05:06;;;;;;;2.45;2.15;;;4.30;99.90;;;;;;4997682;28;20217;-79
2022/01/19 06:07:41;;;;;;;4.18;3.22;;;4.30;99.90;;;;;;4997999;28;20219;-79
2022/01/19 06:10:09;;;;;;;1.95;1.85;;;4.30;99.90;;;;;;4997613;28;20259;-79
2022/01/19 06:12:38;;;;;;;1.63;0.73;;;4.30;99.90;;;;;;4998939;28;20673;-78
2022/01/19 06:15:06;;;;;;;1.73;1.63;;;4.40;99.90;;;;;;4997947;28;20224;-79
2022/01/19 06:17:33;;;;;;;1.02;0.93;;;4.30;99.90;;;;;;4998626;28;20647;-79
2022/01/19 06:20:00;;;;;;;2.45;2.13;;;4.30;99.90;;;;;;4997507;28;20734;-79
2022/01/19 06:22:27;;;;;;;7.50;4.32;;;4.30;99.90;;;;;;4997909;28;20199;-79
2022/01/19 06:24:53;;;;;;;3.47;2.47;;;4.30;99.90;;;;;;4997628;28;20216;-79
2022/01/19 06:27:20;;;;;;;2.08;1.98;;;4.30;99.90;;;;;;4997054;28;20192;-79
2022/01/19 06:29:48;;;;;;;3.00;2.13;;;4.40;99.90;;;;;;4996425;28;20196;-79
2022/01/19 06:32:15;;;;;;;6.32;1.30;;;4.40;99.90;;;;;;4997134;28;20723;-78
2022/01/19 06:34:41;;;;;;;0.60;0.60;;;4.30;99.90;;;;;;4996797;28;20217;-78
2022/01/19 06:37:10;;;;;;;1.63;1.52;;;4.40;99.90;;;;;;4997524;28;20201;-78
2022/01/19 06:39:37;;;;;;;1.05;0.95;;;4.50;99.90;;;;;;4995836;28;20209;-78
2022/01/19 06:42:04;;;;;;;0.60;0.57;;;4.40;99.90;;;;;;4996922;28;20200;-79
2022/01/19 06:44:31;;;;;;;0.50;0.40;;;4.40;99.90;;;;;;4997765;28;20241;-79
2022/01/19 06:46:59;;;;;;;3.85;1.90;;;4.40;99.90;;;;;;4996054;28;20204;-79
2022/01/19 06:49:25;;;;;;;0.80;0.60;;;4.50;99.90;;;;;;4995903;28;20188;-77
2022/01/19 06:51:52;;;;;;;1.13;0.82;;;4.50;99.90;;;;;;4997264;28;20196;-78
2022/01/19 06:54:19;;;;;;;1.45;0.80;;;4.50;99.90;;;;;;4995681;28;20204;-78
2022/01/19 06:56:46;;;;;;;4.90;1.98;;;4.50;99.90;;;;;;4995311;28;20215;-78
2022/01/19 06:59:12;;;;;;;1.77;1.67;;;4.50;99.90;;;;;;4995513;28;20303;-78
2022/01/19 07:01:39;;;;;;;3.17;2.15;;;4.50;99.90;;;;;;4994708;28;20208;-78
2022/01/19 07:04:10;;;;;;;2.10;1.48;;;4.40;99.90;;;;;;4995193;28;20203;-78
2022/01/19 07:06:37;;;;;;;2.28;2.08;;;4.30;99.90;;;;;;4995842;28;20201;-78
2022/01/19 07:09:04;;;;;;;1.05;1.05;;;4.20;99.90;;;;;;4996906;28;20563;-79
2022/01/19 07:11:31;;;;;;;3.90;3.53;;;4.10;99.90;;;;;;4997112;28;20685;-79
2022/01/19 07:13:58;;;;;;;1.02;1.02;;;4.10;99.90;;;;;;4996810;28;20203;-79
2022/01/19 07:16:25;;;;;;;2.03;1.25;;;4.10;99.90;;;;;;4997063;28;20209;-79
2022/01/19 07:18:51;;;;;;;2.22;2.13;;;4.10;99.90;;;;;;4996172;28;20694;-78
2022/01/19 07:21:19;;;;;;;2.15;1.35;;;4.00;99.90;;;;;;4995971;28;20188;-79
2022/01/19 07:23:46;;;;;;;0.60;0.60;;;4.10;99.90;;;;;;4996949;28;20192;-79
2022/01/19 07:26:13;;;;;;;0.80;0.80;;;4.10;99.90;;;;;;4996312;28;20216;-78
2022/01/19 07:28:40;;;;;;;1.70;1.60;;;4.00;99.90;;;;;;4995378;28;20199;-80
2022/01/19 07:31:06;;;;;;;2.58;0.90;;;4.10;99.90;;;;;;4995140;28;20521;-78
2022/01/19 07:33:33;;;;;;;3.75;3.13;;;4.00;99.90;;;;;;4995289;28;20196;-78
2022/01/19 07:36:00;;;;;;;6.28;3.83;;;4.10;99.90;;;;;;4995779;28;20209;-79
2022/01/19 07:38:28;;;;;;;1.85;1.13;;;4.00;99.90;;;;;;4995085;28;20554;-78
2022/01/19 07:40:55;;;;;;;2.53;2.17;;;4.10;99.90;;;;;;4995073;28;20288;-76
2022/01/19 07:43:22;;;;;;;0.70;0.70;;;4.10;99.90;;;;;;4994127;28;20192;-81
2022/01/19 07:45:48;;;;;;;2.05;1.88;;;4.10;99.90;;;;;;4993982;28;20224;-78
2022/01/19 07:48:15;;;;;;;1.15;0.85;;;4.10;99.90;;;;;;4995323;28;20667;-78
2022/01/19 07:50:42;;;;;;;1.30;0.80;;;4.10;99.90;;;;;;4995473;28;20196;-79
2022/01/19 07:53:09;;;;;;;2.28;2.03;;;4.10;99.90;;;;;;5002201;28;20201;-78
2022/01/19 07:55:37;;;;;;;2.13;2.03;;;4.10;99.90;;;;;;5001765;28;20287;-78
2022/01/19 07:58:04;;;;;;;3.25;3.15;;;4.00;99.90;;;;;;4996591;28;20620;-78
2022/01/19 08:00:33;;;;;;;2.38;2.25;;;4.00;99.90;;;;;;4994610;28;20311;-78
2022/01/19 08:03:00;;;;;;;0.90;0.90;;;4.00;99.90;;;;;;4995296;28;20201;-80
2022/01/19 08:05:26;;;;;;;3.72;2.15;;;4.00;99.90;;;;;;4994041;28;20295;-78
2022/01/19 08:07:53;;;;;;;6.53;5.95;;;4.00;99.90;;;;;;4995023;28;20240;-79
2022/01/19 08:10:20;;;;;;;7.22;3.63;;;4.10;99.90;;;;;;4995120;28;20272;-78
2022/01/19 08:12:51;;;;;;;0.50;0.40;;;4.00;99.90;;;;;;4995628;28;20207;-79
2022/01/19 08:15:17;;;;;;;2.65;1.80;;;4.00;99.90;;;;;;4996815;28;20637;-79
2022/01/19 08:17:45;;;;;;;2.05;1.95;;;4.00;99.90;;;;;;4997920;28;20193;-80
2022/01/19 08:20:12;;;;;;;4.10;3.83;;;4.00;99.90;;;;;;4996598;28;20590;-79
2022/01/19 08:22:39;;;;;;;5.55;4.90;;;4.00;99.90;;;;;;4996519;28;20284;-79
2022/01/19 08:25:06;;;;;;;2.45;2.25;;;4.10;99.90;;;;;;4997027;28;20718;-78
2022/01/19 08:27:33;;;;;;;2.53;1.35;;;4.10;99.90;;;;;;4998256;28;20199;-79
2022/01/19 08:30:01;;;;;;;2.25;2.15;;;4.10;99.90;;;;;;5000485;28;20188;-78
2022/01/19 08:32:27;;;;;;;1.85;1.02;;;4.10;99.90;;;;;;4997974;28;20196;-79
2022/01/19 08:34:55;;;;;;;1.30;0.95;;;4.10;99.90;;;;;;4995354;28;20225;-80
2022/01/19 08:37:22;;;;;;;8.45;6.60;;;4.20;99.90;;;;;;4990279;28;20197;-79
2022/01/19 08:39:48;;;;;;;9.50;4.13;;;4.20;99.90;;;;;;4981015;28;20225;-79
2022/01/19 08:42:15;;;;;;;4.32;1.60;;;4.10;99.90;;;;;;4976387;28;20286;-79
2022/01/19 08:44:42;;;;;;;1.60;1.50;;;4.20;99.90;;;;;;4975471;28;20224;-79
2022/01/19 08:47:10;;;;;;;1.13;0.95;;;4.20;99.90;;;;;;4976378;28;20531;-79
2022/01/19 08:49:37;;;;;;;4.65;1.85;;;4.10;99.90;;;;;;4976233;28;20194;-79
2022/01/19 08:52:05;;;;;;;1.05;1.05;;;4.10;99.90;;;;;;4976911;28;20189;-79
2022/01/19 08:54:32;;;;;;;3.42;2.97;;;4.10;99.90;;;;;;4978371;28;20198;-79
2022/01/19 08:57:01;;;;;;;2.67;2.45;;;4.10;99.90;;;;;;4976285;28;20209;-79
2022/01/19 08:59:28;;;;;;;4.40;4.20;;;4.10;99.90;;;;;;4975856;28;20263;-79
2022/01/19 09:01:55;;;;;;;4.50;3.25;;;4.10;99.90;;;;;;4975768;28;20197;-79
2022/01/19 09:04:23;;;;;;;5.38;3.90;;;4.10;99.90;;;;;;4975547;28;20198;-79
2022/01/19 09:06:50;;;;;;;2.25;2.15;;;4.10;99.90;;;;;;4975338;28;20689;-78
2022/01/19 09:09:17;;;;;;;1.27;1.17;;;4.00;99.90;;;;;;4990123;28;20200;-80
2022/01/19 09:11:44;;;;;;;1.58;1.48;;;4.00;99.90;;;;;;4994152;28;20703;-80
2022/01/19 09:14:10;;;;;;;6.30;3.45;;;4.10;99.90;;;;;;4994860;28;20193;-80
2022/01/19 09:16:38;;;;;;;0.70;0.70;;;4.10;99.90;;;;;;4996338;28;20623;-80
2022/01/19 09:19:07;;;;;;;4.40;1.42;;;4.10;99.90;;;;;;5001021;28;20219;-79
2022/01/19 09:21:35;;;;;;;0.50;0.40;;;4.10;99.90;;;;;;4999854;28;20228;-82
2022/01/19 09:24:02;;;;;;;7.38;2.55;;;4.10;99.90;;;;;;4999830;28;20204;-81
2022/01/19 09:26:29;;;;;;;0.75;0.75;;;4.10;99.90;;;;;;4998786;28;20271;-81
2022/01/19 09:28:56;;;;;;;5.72;2.85;;;4.20;99.90;;;;;;4998311;28;20196;-81
2022/01/19 09:31:23;;;;;;;4.93;3.33;;;4.20;99.90;;;;;;4998072;28;20260;-81
2022/01/19 09:33:56;;;;;;;2.70;2.58;;;4.20;99.90;;;;;;4999184;28;20223;-80
2022/01/19 09:36:32;;;;;;;4.75;3.67;;;4.10;99.90;;;;;;4998575;28;20208;-81
2022/01/19 09:39:01;;;;;;;2.85;2.58;;;4.20;99.90;;;;;;4997808;28;20192;-80
2022/01/19 09:41:29;;;;;;;4.70;4.30;;;4.20;99.90;;;;;;4997976;28;20251;-82
2022/01/19 09:43:57;;;;;;;5.63;3.05;;;4.20;99.90;;;;;;4997664;28;20726;-82
2022/01/19 09:46:26;;;;;;;5.20;4.75;;;4.20;99.90;;;;;;4997699;28;20251;-82
2022/01/19 09:48:53;;;;;;;2.80;2.70;;;4.20;99.90;;;;;;4997477;28;20619;-82
2022/01/19 09:51:20;;;;;;;2.53;2.20;;;4.30;99.90;;;;;;4997735;28;20201;-79
2022/01/19 09:53:47;;;;;;;3.15;2.95;;;4.30;99.90;;;;;;4997075;28;20283;-81
2022/01/19 09:56:19;;;;;;;1.05;0.90;;;4.30;99.90;;;;;;4997838;28;20687;-81
2022/01/19 09:58:46;;;;;;;6.55;5.43;;;4.30;99.90;;;;;;4997625;28;20200;-80
2022/01/19 10:01:18;;;;;;;2.85;2.72;;;4.30;99.90;;;;;;4997806;28;20244;-81
2022/01/19 10:03:45;;;;;;;2.25;2.05;;;4.30;99.90;;;;;;4998359;28;20196;-81
2022/01/19 10:06:14;;;;;;;7.72;4.55;;;4.30;99.90;;;;;;4997472;28;20217;-82
2022/01/19 10:08:42;;;;;;;3.63;2.88;;;4.30;99.90;;;;;;4997394;28;20283;-81
2022/01/19 10:11:17;;;;;;;1.15;1.05;;;4.30;99.90;;;;;;4998535;28;20633;-82
2022/01/19 10:17:02;;;;;;;1.00;1.00;;;4.30;99.90;;;;;;4976064;28;20745;-81
2022/01/19 10:19:33;;;;;;;3.42;2.53;;;4.40;99.90;;;;;;4995508;28;20686;-81
2022/01/19 10:22:06;;;;;;;3.47;2.35;;;4.40;99.90;;;;;;4996795;28;20204;-82
2022/01/19 10:24:38;;;;;;;1.15;1.15;;;4.30;99.90;;;;;;4997413;28;20288;-82
2022/01/19 10:27:19;;;;;;;1.70;1.25;;;4.40;99.90;;;;;;4998613;28;20216;-82
2022/01/19 10:29:48;;;;;;;15.15;3.70;;;4.50;99.90;;;;;;4996616;28;20658;-81
2022/01/19 10:32:16;;;;;;;5.75;5.18;;;4.50;99.90;;;;;;4997482;28;20544;-81
2022/01/19 10:34:43;;;;;;;15.52;9.00;;;4.40;99.90;;;;;;4996552;28;20221;-81
2022/01/19 10:37:10;;;;;;;6.35;5.75;;;4.40;99.90;;;;;;4998362;28;20207;-80
2022/01/19 10:39:41;;;;;;;2.65;2.53;;;4.40;99.90;;;;;;4997086;28;20704;-82
2022/01/19 10:42:10;;;;;;;3.03;2.83;;;4.40;99.90;;;;;;4997524;28;20231;-81
2022/01/19 10:44:42;;;;;;;3.75;2.45;;;4.50;99.90;;;;;;4996585;28;20222;-82
2022/01/19 10:47:11;;;;;;;4.20;2.10;;;4.40;99.90;;;;;;4998134;28;20256;-82
2022/01/19 10:49:49;;;;;;;1.80;1.70;;;4.40;99.90;;;;;;4997726;28;20204;-81
2022/01/19 10:52:32;;;;;;;2.95;2.75;;;4.50;99.90;;;;;;4997695;28;20219;-82
2022/01/19 10:55:01;;;;;;;0.50;0.50;;;4.50;99.90;;;;;;4997402;28;20234;-81
2022/01/19 10:57:30;;;;;;;9.23;5.45;;;4.50;99.90;;;;;;4996874;28;20284;-82
2022/01/19 11:00:11;;;;;;;3.28;2.20;;;4.50;99.90;;;;;;4996568;28;20212;-81
2022/01/19 11:02:40;;;;;;;2.35;1.83;;;4.50;99.90;;;;;;4997620;28;20205;-82
2022/01/19 11:05:07;;;;;;;4.07;3.45;;;4.50;99.90;;;;;;4997068;28;20212;-81
2022/01/19 11:07:34;;;;;;;3.55;3.30;;;4.50;99.90;;;;;;4996991;28;20192;-81
2022/01/19 11:10:10;;;;;;;5.97;5.40;;;4.50;99.90;;;;;;4996932;28;20292;-81
2022/01/19 11:12:44;;;;;;;2.72;2.05;;;4.40;99.90;;;;;;4996876;28;20200;-82
2022/01/19 11:15:11;;;;;;;2.08;1.90;;;4.40;99.90;;;;;;4996068;28;20242;-81
2022/01/19 11:17:40;;;;;;;4.85;4.22;;;4.30;99.90;;;;;;4996452;28;20203;-81
2022/01/19 11:20:10;;;;;;;7.00;4.18;;;4.30;99.90;;;;;;4996104;28;20465;-80
2022/01/19 11:23:06;;;;;;;1.42;1.33;;;4.30;99.90;;;;;;4995984;28;20201;-82
2022/01/19 11:25:46;;;;;;;9.20;5.60;;;4.30;99.90;;;;;;4996259;28;20572;-81
2022/01/19 11:28:25;;;;;;;8.10;4.47;;;4.40;99.90;;;;;;4995722;28;20507;-82
2022/01/19 11:30:53;;;;;;;3.20;1.55;;;4.40;99.90;;;;;;4996070;28;20275;-82
2022/01/19 11:33:25;;;;;;;2.00;1.90;;;4.40;99.90;;;;;;4995916;28;20196;-82
2022/01/19 11:35:54;;;;;;;7.35;5.43;;;4.50;99.90;;;;;;4995631;28;20243;-82
2022/01/19 11:38:31;;;;;;;2.75;1.58;;;4.50;99.90;;;;;;4996070;28;20208;-82
2022/01/19 11:40:58;;;;;;;4.53;3.20;;;4.50;99.90;;;;;;4994944;28;20591;-81
2022/01/19 11:43:29;;;;;;;6.05;5.25;;;4.60;99.90;;;;;;4996357;28;20225;-81
2022/01/19 11:45:57;;;;;;;3.95;2.88;;;4.50;99.90;;;;;;4996185;28;20247;-82
2022/01/19 11:48:28;;;;;;;4.80;2.20;;;4.50;99.90;;;;;;4995498;28;20666;-82
2022/01/19 11:51:16;;;;;;;2.65;2.45;;;4.50;99.90;;;;;;4995611;28;20280;-82
2022/01/19 11:54:08;;;;;;;1.55;1.45;;;4.60;99.90;;;;;;4995596;28;20281;-81
2022/01/19 11:57:06;;;;;;;4.22;3.33;;;4.50;99.90;;;;;;4995665;28;20823;-82
2022/01/19 11:59:55;;;;;;;6.78;3.50;;;4.50;99.90;;;;;;4995750;28;20280;-81
2022/01/19 12:02:44;;;;;;;3.53;2.15;;;4.50;99.90;;;;;;4996508;28;20196;-82
2022/01/19 12:05:18;;;;;;;19.02;6.78;;;4.50;99.90;;;;;;4996872;28;20217;-82
2022/01/19 12:07:48;;;;;;;11.15;5.78;;;4.50;99.90;;;;;;4996317;28;20205;-82
2022/01/19 12:10:19;;;;;;;3.83;2.05;;;4.40;99.90;;;;;;4996087;28;20200;-82
2022/01/19 12:13:09;;;;;;;4.78;2.95;;;4.40;99.90;;;;;;4996118;28;20233;-82
2022/01/19 12:15:53;;;;;;;5.85;5.15;;;4.40;99.90;;;;;;4995879;28;20722;-82
2022/01/19 12:18:44;;;;;;;11.38;5.78;;;4.50;99.90;;;;;;4996081;28;20671;-81
2022/01/19 12:21:12;;;;;;;8.32;3.97;;;4.50;99.90;;;;;;4995710;28;20762;-82
2022/01/19 12:23:41;;;;;;;3.63;3.20;;;4.50;99.90;;;;;;4996118;28;20284;-82
2022/01/19 12:26:09;;;;;;;5.38;3.65;;;4.50;99.90;;;;;;4995641;28;20236;-81
2022/01/19 12:28:47;;;;;;;3.33;3.03;;;4.40;99.90;;;;;;4996343;28;20666;-82
2022/01/19 12:31:35;;;;;;;3.42;3.13;;;4.40;99.90;;;;;;4995891;28;20308;-81
2022/01/19 12:34:20;;;;;;;3.65;2.00;;;4.40;99.90;;;;;;4996156;28;20197;-81
2022/01/19 12:36:50;;;;;;;5.38;4.70;;;4.50;99.90;;;;;;4996526;28;20684;-81
2022/01/19 12:39:44;;;;;;;5.05;3.00;;;4.50;99.90;;;;;;4996017;28;20260;-82
2022/01/19 12:42:16;;;;;;;2.67;2.47;;;4.50;99.90;;;;;;4996337;28;20721;-82
2022/01/19 12:44:47;;;;;;;4.93;4.10;;;4.50;99.90;;;;;;4995417;28;20240;-82
2022/01/19 12:47:49;;;;;;;7.30;4.28;;;4.60;99.90;;;;;;4996726;28;20345;-82
2022/01/19 12:50:46;;;;;;;3.72;2.83;;;4.50;99.90;;;;;;4996629;28;20573;-82
2022/01/19 12:53:20;;;;;;;7.10;4.63;;;4.50;99.90;;;;;;5000710;28;20220;-82
2022/01/19 12:55:49;;;;;;;3.28;2.97;;;4.50;99.90;;;;;;5000241;28;20653;-82
2022/01/19 12:58:22;;;;;;;10.95;5.38;;;4.50;99.90;;;;;;5005314;28;20284;-81
2022/01/19 13:00:51;;;;;;;11.25;7.15;;;4.50;99.90;;;;;;5000077;28;20728;-82
2022/01/19 13:03:25;;;;;;;1.83;1.63;;;4.50;99.90;;;;;;5000830;28;20207;-82
2022/01/19 13:06:01;;;;;;;7.10;3.65;;;4.50;99.90;;;;;;5000484;28;20323;-81
2022/01/19 13:08:35;;;;;;;7.15;3.97;;;4.60;99.90;;;;;;5000977;28;20223;-81
2022/01/19 13:11:10;;;;;;;6.45;4.00;;;4.60;99.90;;;;;;4998799;28;20288;-82
2022/01/19 13:13:49;;;;;;;4.00;3.65;;;4.50;99.90;;;;;;4999469;28;20224;-81
2022/01/19 13:16:26;;;;;;;1.52;1.42;;;4.50;99.90;;;;;;4999513;28;20634;-82
2022/01/19 13:18:53;;;;;;;6.05;4.38;;;4.50;99.90;;;;;;4999730;28;20283;-82
2022/01/19 13:21:23;;;;;;;15.52;4.57;;;4.50;99.90;;;;;;4999070;28;20597;-81
2022/01/19 13:23:56;;;;;;;12.90;2.78;;;4.50;99.90;;;;;;5000024;28;20232;-82
2022/01/19 13:26:25;;;;;;;3.40;3.20;;;4.50;99.90;;;;;;4999819;28;20248;-82
2022/01/19 13:28:52;;;;;;;0.70;0.70;;;4.50;99.90;;;;;;5000995;28;20189;-82
2022/01/19 13:31:20;;;;;;;2.55;2.35;;;4.50;99.90;;;;;;5000210;28;20200;-82
2022/01/19 13:33:55;;;;;;;3.55;3.10;;;4.50;99.90;;;;;;5000209;28;20651;-81
2022/01/19 13:36:27;;;;;;;1.33;1.23;;;4.50;99.90;;;;;;5000538;28;20220;-81
2022/01/19 13:38:55;;;;;;;12.23;6.80;;;4.50;99.90;;;;;;5000167;28;20216;-82
2022/01/19 13:41:22;;;;;;;9.70;5.80;;;4.50;99.90;;;;;;5000392;28;20227;-81
2022/01/19 13:43:50;;;;;;;4.05;2.10;;;4.40;99.90;;;;;;4999879;28;20235;-81
2022/01/19 13:46:24;;;;;;;11.52;5.47;;;4.40;99.90;;;;;;4997852;28;20231;-82
2022/01/19 13:48:57;;;;;;;13.85;6.40;;;4.40;99.90;;;;;;4998391;28;20204;-77
2022/01/19 13:51:26;;;;;;;12.73;6.07;;;4.30;99.90;;;;;;4993856;28;20216;-79
2022/01/19 13:53:55;;;;;;;0.70;0.68;;;4.30;99.90;;;;;;4989588;28;20225;-80
2022/01/19 13:56:27;;;;;;;9.05;6.20;;;4.30;99.90;;;;;;4995675;28;20213;-79
2022/01/19 13:59:01;;;;;;;8.18;5.13;;;4.30;99.90;;;;;;4998852;28;20196;-80
2022/01/19 14:01:36;;;;;;;3.80;3.50;;;4.30;99.90;;;;;;4997490;28;20201;-80
2022/01/19 14:04:07;;;;;;;5.93;5.38;;;4.30;99.90;;;;;;4987797;28;20203;-80
2022/01/19 14:06:37;;;;;;;1.83;1.73;;;4.20;99.90;;;;;;4999878;28;20224;-81
2022/01/19 14:09:13;;;;;;;3.17;2.88;;;4.20;99.90;;;;;;4999845;28;20540;-79
2022/01/19 14:11:41;;;;;;;2.50;2.40;;;4.20;99.90;;;;;;5000122;28;20646;-80
2022/01/19 14:14:09;;;;;;;5.00;3.00;;;4.10;99.90;;;;;;5000963;28;20201;-81